Главная страница
METAR-TAF:

METAR-TAF

Аэропорты :

Олесунн, Норвегия

широта: 62-34N, долгота: 006-07E, высота над уровнем моря: 2 м

Текущие метеонаблюдения

Эта сводка был подготовлена 12 минут назад, в 11:20 UTC
Ветер 6 Узел от северо-северо-восточный
Температура 9°C
Влажность 71%
Давление 1009 hPa
Видимость 10 км и более
небольшая облачность на высоте 2200 фута
Рассеянная облачность на высоте 4400 фута

METAR: ENAL 251120Z 03006KT 9999 FEW022 BKN044 09/04 Q1009

Время: 13:32 (11:32 UTC)

Прогноз

Эта сводка был подготовлена 3 часа и 32 минут назад, в 08:00 UTC
Прогноз действительный с 25-го 09 UTC до 25-го 18 UTC
Ветер 8 Узел от северный
Видимость 10 км и более
небольшая облачность на высоте 1200 фута
Рассеянная облачность на высоте 2500 фута
временами
С 25-го 13 UTC до 25-го 18 UTC
Рассеянная облачность на высоте 1200 фута
ливневые дожди

TAF: ENAL 250800Z 2509/2518 36008KT 9999 FEW012 BKN025 TEMPO 2513/2518 SHRA BKN012

Метеонаблюдения и прогнозы для более 4000 аэропортов (сводки METAR и TAF).

Имеющиеся станции представлены на карте желтыми и красными точками.

Чтобы увидеть название станции, наведите на нее мышь.

Затем щелкните, чтобы увидеть метеонаблюдения и метеопрогнозы.

Управление картой: чтобы увеличить масштаб, щелкните зеленые кнопки с черным крестиком; чтобы уменьшить масштаб, щелкните зеленую кнопку с тире; для просмотра соседних карт щелкайте зеленые стрелки.


METAR-TAF: